Time;durP1;ratioP1;P1;durP2;ratioP2;P2;SDS_P1;SDS_P2;PMS_P1;PMS_P2;Temp;Humidity;BMP_temperature;BMP_pressure;BME280_temperature;BME280_humidity;BME280_pressure;Samples;Min_cycle;Max_cycle;Signal;HPM_P1;HPM_P2
2022/09/10 00:01:35;;;;;;;1999.90;999.90;;;14.70;99.90;;;;;;5069061;28;20585;-68
2022/09/10 00:04:02;;;;;;;1999.90;999.90;;;14.70;99.90;;;;;;5068768;28;20047;-69
2022/09/10 00:06:30;;;;;;;1999.90;999.90;;;14.70;99.90;;;;;;5080161;28;20044;-68
2022/09/10 00:08:57;;;;;;;1999.90;999.90;;;14.70;99.90;;;;;;5069519;28;20055;-68
2022/09/10 00:11:30;;;;;;;1999.90;999.90;;;14.70;99.90;;;;;;5085769;28;20670;-68
2022/09/10 00:13:57;;;;;;;1999.90;999.90;;;14.70;99.90;;;;;;5066584;28;20707;-68
2022/09/10 00:16:23;;;;;;;1999.90;999.90;;;14.80;99.90;;;;;;5067544;28;20059;-68
2022/09/10 00:18:49;;;;;;;1999.90;999.90;;;14.80;99.90;;;;;;5063210;28;20079;-69
2022/09/10 00:21:17;;;;;;;1999.90;999.90;;;14.80;99.90;;;;;;5068721;28;20121;-68
2022/09/10 00:23:44;;;;;;;1999.90;999.90;;;14.80;99.90;;;;;;5051126;28;20047;-68
2022/09/10 00:26:26;;;;;;;1999.90;999.90;;;14.80;99.90;;;;;;5071130;28;20063;-68
2022/09/10 00:28:54;;;;;;;1999.90;999.90;;;14.80;99.90;;;;;;5051663;28;20049;-68
2022/09/10 00:31:21;;;;;;;1999.90;999.90;;;14.80;99.90;;;;;;5072796;28;20385;-68
2022/09/10 00:33:49;;;;;;;1999.90;999.90;;;14.80;99.90;;;;;;5058351;28;20040;-68
2022/09/10 00:36:23;;;;;;;1999.90;999.90;;;14.90;99.90;;;;;;5065236;28;20040;-68
2022/09/10 00:38:50;;;;;;;1999.90;999.90;;;14.80;99.90;;;;;;5077116;28;20509;-68
2022/09/10 00:41:18;;;;;;;1999.90;999.90;;;14.80;99.90;;;;;;5071212;28;20075;-68
2022/09/10 00:44:04;;;;;;;1999.90;999.90;;;14.80;99.90;;;;;;5063335;28;20040;-68
2022/09/10 00:46:44;;;;;;;1999.90;999.90;;;14.90;99.90;;;;;;5061947;28;20079;-68
2022/09/10 00:49:33;;;;;;;1999.90;999.90;;;14.90;99.90;;;;;;5053362;28;20044;-68
2022/09/10 00:52:00;;;;;;;1999.90;999.90;;;14.80;99.90;;;;;;5071628;28;20032;-68
2022/09/10 00:54:27;;;;;;;1999.90;999.90;;;14.90;99.90;;;;;;5077208;28;20054;-68
2022/09/10 00:56:56;;;;;;;1999.90;999.90;;;14.90;99.90;;;;;;5054525;28;20074;-68
2022/09/10 00:59:25;;;;;;;1999.90;999.90;;;14.90;99.90;;;;;;5073972;28;20501;-68
2022/09/10 01:01:51;;;;;;;1999.90;999.90;;;14.90;99.90;;;;;;5083088;28;20488;-68
2022/09/10 01:04:17;;;;;;;1999.90;999.90;;;14.90;99.90;;;;;;5088166;28;20032;-68
2022/09/10 01:06:45;;;;;;;1999.90;999.90;;;14.90;99.90;;;;;;5071151;28;20097;-69
2022/09/10 01:09:12;;;;;;;1999.90;999.90;;;14.90;99.90;;;;;;5064308;28;20533;-69
2022/09/10 01:11:58;;;;;;;1999.90;999.90;;;15.00;99.90;;;;;;5052231;28;20044;-68
2022/09/10 01:14:23;;;;;;;1999.90;999.90;;;15.00;99.90;;;;;;5064241;28;20045;-69
2022/09/10 01:17:11;;;;;;;1999.90;999.90;;;15.00;99.90;;;;;;5066623;28;20411;-69
2022/09/10 01:20:15;;;;;;;1999.90;999.90;;;15.00;99.90;;;;;;5065460;28;20047;-69
2022/09/10 01:22:57;;;;;;;1999.90;999.90;;;15.00;99.90;;;;;;4991732;28;20545;-68
2022/09/10 01:26:03;;;;;;;1999.90;999.90;;;15.00;99.90;;;;;;5075539;28;20140;-68
2022/09/10 01:28:54;;;;;;;1999.90;999.90;;;15.00;99.90;;;;;;4999631;28;20410;-68
2022/09/10 01:31:35;;;;;;;1999.90;999.90;;;15.00;99.90;;;;;;5043659;28;20152;-71
2022/09/10 01:34:12;;;;;;;1999.90;999.90;;;15.00;99.90;;;;;;5074046;28;20048;-68
2022/09/10 01:36:42;;;;;;;1999.90;999.90;;;15.00;99.90;;;;;;5061781;28;20471;-69
2022/09/10 01:39:07;;;;;;;1999.90;999.90;;;15.00;99.90;;;;;;5072902;28;20054;-68
2022/09/10 01:41:33;;;;;;;1999.90;999.90;;;15.00;99.90;;;;;;5059062;28;20044;-69
2022/09/10 01:44:08;;;;;;;1999.90;999.90;;;15.00;99.90;;;;;;5059491;28;20048;-69
2022/09/10 01:46:46;;;;;;;1999.90;999.90;;;15.00;99.90;;;;;;5064282;28;20044;-69
2022/09/10 01:49:35;;;;;;;1999.90;999.90;;;15.00;99.90;;;;;;5091828;28;20064;-68
2022/09/10 01:52:18;;;;;;;1999.90;999.90;;;15.00;99.90;;;;;;5075896;28;20043;-69
2022/09/10 01:55:04;;;;;;;1999.90;999.90;;;15.00;99.90;;;;;;5068970;28;20415;-69
2022/09/10 01:57:57;;;;;;;1999.90;999.90;;;15.00;99.90;;;;;;5052915;28;20040;-68
2022/09/10 02:00:24;;;;;;;1999.90;999.90;;;15.00;99.90;;;;;;5056123;28;20398;-68
2022/09/10 02:03:12;;;;;;;1999.90;999.90;;;15.00;99.90;;;;;;5066504;28;20128;-69
2022/09/10 02:05:40;;;;;;;1999.90;999.90;;;15.00;99.90;;;;;;5038469;28;20040;-68
2022/09/10 02:08:14;;;;;;;1999.90;999.90;;;15.00;99.90;;;;;;5071848;28;20131;-69
2022/09/10 02:10:58;;;;;;;1999.90;999.90;;;15.00;99.90;;;;;;5046168;28;20442;-69
2022/09/10 02:13:25;;;;;;;1999.90;999.90;;;15.00;99.90;;;;;;5061976;28;20411;-69
2022/09/10 02:15:51;;;;;;;1999.90;999.90;;;15.00;99.90;;;;;;5070070;28;20048;-68
2022/09/10 02:18:19;;;;;;;1999.90;999.90;;;15.00;99.90;;;;;;5044298;28;20054;-68
2022/09/10 02:20:46;;;;;;;1999.90;999.90;;;14.90;99.90;;;;;;5068786;28;20044;-69
2022/09/10 02:23:15;;;;;;;1999.90;999.90;;;15.00;99.90;;;;;;5085515;28;20040;-69
2022/09/10 02:25:40;;;;;;;1999.90;999.90;;;15.00;99.90;;;;;;5067424;28;20382;-68
2022/09/10 02:28:07;;;;;;;1999.90;999.90;;;14.90;99.90;;;;;;5059427;28;20036;-68
2022/09/10 02:30:33;;;;;;;1999.90;999.90;;;14.90;99.90;;;;;;5087100;28;20500;-68
2022/09/10 02:32:58;;;;;;;1999.90;999.90;;;14.90;99.90;;;;;;5068785;28;20090;-69
2022/09/10 02:35:24;;;;;;;1999.90;999.90;;;14.90;99.90;;;;;;5065496;28;20047;-68
2022/09/10 02:37:50;;;;;;;1999.90;999.90;;;14.90;99.90;;;;;;5079639;28;20048;-69
2022/09/10 02:40:18;;;;;;;1999.90;999.90;;;14.90;99.90;;;;;;5059587;28;20119;-68
2022/09/10 02:42:45;;;;;;;1999.90;999.90;;;14.90;99.90;;;;;;5064573;28;20776;-68
2022/09/10 02:45:14;;;;;;;1999.90;999.90;;;14.90;99.90;;;;;;5062623;28;20119;-68
2022/09/10 02:47:40;;;;;;;1999.90;999.90;;;14.90;99.90;;;;;;5075236;28;20040;-68
2022/09/10 02:50:08;;;;;;;1999.90;999.90;;;14.90;99.90;;;;;;5057141;28;20032;-68
2022/09/10 02:52:34;;;;;;;1999.90;999.90;;;14.90;99.90;;;;;;5065678;28;20115;-68
2022/09/10 02:55:00;;;;;;;1999.90;999.90;;;15.00;99.90;;;;;;5067968;28;20100;-68
2022/09/10 02:57:26;;;;;;;1999.90;999.90;;;14.90;99.90;;;;;;5092372;28;20031;-68
2022/09/10 02:59:55;;;;;;;1999.90;999.90;;;14.90;99.90;;;;;;5071328;28;20041;-68
2022/09/10 03:02:21;;;;;;;1999.90;999.90;;;14.90;99.90;;;;;;5071879;28;20040;-68
2022/09/10 03:04:47;;;;;;;1999.90;999.90;;;15.00;99.90;;;;;;5071640;28;20059;-68
2022/09/10 03:07:15;;;;;;;1999.90;999.90;;;14.90;99.90;;;;;;5071354;28;20093;-68
2022/09/10 03:09:41;;;;;;;1999.90;999.90;;;15.00;99.90;;;;;;5088667;28;20093;-68
2022/09/10 03:12:07;;;;;;;1999.90;999.90;;;14.90;99.90;;;;;;5057366;28;20039;-68
2022/09/10 03:14:33;;;;;;;1999.90;999.90;;;14.90;99.90;;;;;;5070949;28;20141;-68
2022/09/10 03:16:59;;;;;;;1999.90;999.90;;;14.90;99.90;;;;;;5073958;28;20048;-68
2022/09/10 03:19:24;;;;;;;1999.90;999.90;;;14.90;99.90;;;;;;5068222;28;20104;-68
2022/09/10 03:21:51;;;;;;;1999.90;999.90;;;14.90;99.90;;;;;;5089768;28;20039;-68
2022/09/10 03:24:17;;;;;;;1999.90;999.90;;;14.90;99.90;;;;;;5070917;28;20474;-68
2022/09/10 03:26:43;;;;;;;1999.90;999.90;;;14.80;99.90;;;;;;5073893;28;20150;-68
2022/09/10 03:29:09;;;;;;;1999.90;999.90;;;14.80;99.90;;;;;;5069181;28;20032;-68
2022/09/10 03:31:35;;;;;;;1999.90;999.90;;;14.80;99.90;;;;;;5090002;28;20055;-68
2022/09/10 03:34:01;;;;;;;1999.90;999.90;;;14.80;99.90;;;;;;5052269;28;20044;-68
2022/09/10 03:36:30;;;;;;;1999.90;999.90;;;14.80;99.90;;;;;;5076897;28;20028;-68
2022/09/10 03:38:56;;;;;;;1999.90;999.90;;;14.90;99.90;;;;;;5071971;28;20457;-69
2022/09/10 03:41:22;;;;;;;1999.90;999.90;;;14.90;99.90;;;;;;5078390;28;20036;-68
2022/09/10 03:43:48;;;;;;;1999.90;999.90;;;14.90;99.90;;;;;;5062810;28;20412;-68
2022/09/10 03:46:14;;;;;;;1999.90;999.90;;;14.90;99.90;;;;;;5062251;28;20097;-68
2022/09/10 03:48:42;;;;;;;1999.90;999.90;;;14.90;99.90;;;;;;5070734;28;20089;-68
2022/09/10 03:51:09;;;;;;;1999.90;999.90;;;14.90;99.90;;;;;;5070841;28;20069;-68
2022/09/10 03:53:35;;;;;;;1999.90;999.90;;;14.90;99.90;;;;;;5053308;28;20067;-68
2022/09/10 03:56:02;;;;;;;1999.90;999.90;;;14.90;99.90;;;;;;5087331;28;20082;-69
2022/09/10 03:58:27;;;;;;;1999.90;999.90;;;14.90;99.90;;;;;;5071048;28;20047;-68
2022/09/10 04:00:53;;;;;;;1999.90;999.90;;;14.90;99.90;;;;;;5054174;28;20574;-68
2022/09/10 04:03:19;;;;;;;1999.90;999.90;;;14.90;99.90;;;;;;5056609;28;20407;-69
2022/09/10 04:05:44;;;;;;;1999.90;999.90;;;14.90;99.90;;;;;;5071231;28;20082;-68
2022/09/10 04:08:12;;;;;;;1999.90;999.90;;;14.90;99.90;;;;;;5063991;28;20040;-68
2022/09/10 04:10:38;;;;;;;1999.90;999.90;;;14.80;99.90;;;;;;5058760;28;20062;-68
2022/09/10 04:13:04;;;;;;;1999.90;999.90;;;14.80;99.90;;;;;;5071062;28;20098;-69
2022/09/10 04:15:30;;;;;;;1999.90;999.90;;;14.80;99.90;;;;;;5084362;28;20075;-68
2022/09/10 04:17:55;;;;;;;1999.90;999.90;;;14.80;99.90;;;;;;5071286;28;20036;-68
2022/09/10 04:20:22;;;;;;;1999.90;999.90;;;14.70;99.90;;;;;;5039609;28;20483;-69
2022/09/10 04:22:50;;;;;;;1999.90;999.90;;;14.80;99.90;;;;;;5071692;28;20044;-69
2022/09/10 04:25:17;;;;;;;1999.90;999.90;;;14.80;99.90;;;;;;5070906;28;20120;-69
2022/09/10 04:27:43;;;;;;;1999.90;999.90;;;14.80;99.90;;;;;;5069257;28;20044;-68
2022/09/10 04:30:10;;;;;;;1999.90;999.90;;;14.80;99.90;;;;;;5066870;28;20054;-68
2022/09/10 04:32:36;;;;;;;1999.90;999.90;;;14.80;99.90;;;;;;5053829;28;20042;-68
2022/09/10 04:35:03;;;;;;;1999.90;999.90;;;14.80;99.90;;;;;;5066290;28;20075;-69
2022/09/10 04:37:30;;;;;;;1999.90;999.90;;;14.80;99.90;;;;;;5070004;28;20400;-68
2022/09/10 04:39:56;;;;;;;1999.90;999.90;;;14.80;99.90;;;;;;5070297;28;20089;-68
2022/09/10 04:42:21;;;;;;;1999.90;999.90;;;14.80;99.90;;;;;;5070550;28;20495;-69
2022/09/10 04:44:47;;;;;;;1999.90;999.90;;;14.80;99.90;;;;;;5055315;28;20143;-68
2022/09/10 04:47:14;;;;;;;1999.90;999.90;;;14.90;99.90;;;;;;5063098;28;20055;-68
2022/09/10 04:49:40;;;;;;;1999.90;999.90;;;14.80;99.90;;;;;;5053046;28;20573;-69
2022/09/10 04:52:05;;;;;;;1999.90;999.90;;;14.80;99.90;;;;;;5070234;28;20071;-68
2022/09/10 04:54:32;;;;;;;1999.90;999.90;;;14.80;99.90;;;;;;5070694;28;20149;-68
2022/09/10 04:56:59;;;;;;;1999.90;999.90;;;14.80;99.90;;;;;;5068228;28;20060;-68
2022/09/10 04:59:26;;;;;;;1999.90;999.90;;;14.80;99.90;;;;;;5073899;28;20052;-68
2022/09/10 05:01:52;;;;;;;1999.90;999.90;;;14.80;99.90;;;;;;5070730;28;20533;-69
2022/09/10 05:04:18;;;;;;;1999.90;999.90;;;14.70;99.90;;;;;;5065093;28;20460;-68
2022/09/10 05:06:43;;;;;;;1999.90;999.90;;;14.70;99.90;;;;;;5041570;28;20048;-68
2022/09/10 05:09:10;;;;;;;1999.90;999.90;;;14.70;99.90;;;;;;5057230;28;20043;-69
2022/09/10 05:11:36;;;;;;;1999.90;999.90;;;14.70;99.90;;;;;;5087874;28;20032;-68
2022/09/10 05:14:02;;;;;;;1999.90;999.90;;;14.70;99.90;;;;;;5052981;28;20043;-68
2022/09/10 05:16:27;;;;;;;1999.90;999.90;;;14.70;99.90;;;;;;5067546;28;20055;-68
2022/09/10 05:18:53;;;;;;;1999.90;999.90;;;14.70;99.90;;;;;;5063686;28;20036;-69
2022/09/10 05:21:19;;;;;;;1999.90;999.90;;;14.80;99.90;;;;;;5068924;28;20052;-68
2022/09/10 05:23:44;;;;;;;1999.90;999.90;;;14.80;99.90;;;;;;5069428;28;20055;-68
2022/09/10 05:26:10;;;;;;;1999.90;999.90;;;14.80;99.90;;;;;;5069738;28;20510;-68
2022/09/10 05:28:36;;;;;;;1999.90;999.90;;;14.90;99.90;;;;;;5056605;28;20070;-68
2022/09/10 05:31:02;;;;;;;1999.90;999.90;;;14.90;99.90;;;;;;5051122;28;20521;-68
2022/09/10 05:33:27;;;;;;;1999.90;999.90;;;14.90;99.90;;;;;;5066551;28;20683;-68
2022/09/10 05:35:53;;;;;;;1999.90;999.90;;;14.90;99.90;;;;;;5066652;28;20042;-68
2022/09/10 05:38:20;;;;;;;1999.90;999.90;;;15.00;99.90;;;;;;5069703;28;20048;-68
2022/09/10 05:40:45;;;;;;;1999.90;999.90;;;15.00;99.90;;;;;;5081382;28;20480;-68
2022/09/10 05:43:11;;;;;;;1999.90;999.90;;;15.00;99.90;;;;;;5066302;28;20578;-68
2022/09/10 05:45:37;;;;;;;1999.90;999.90;;;15.00;99.90;;;;;;5038906;28;20049;-69
2022/09/10 05:48:02;;;;;;;1999.90;999.90;;;15.00;99.90;;;;;;5063137;28;20055;-69
2022/09/10 05:50:29;;;;;;;1999.90;999.90;;;15.00;99.90;;;;;;5074931;28;20138;-68
2022/09/10 05:52:55;;;;;;;1999.90;999.90;;;15.10;99.90;;;;;;5080603;28;20040;-69
2022/09/10 05:55:21;;;;;;;1999.90;999.90;;;15.10;99.90;;;;;;5051893;28;20040;-68
2022/09/10 05:57:46;;;;;;;1999.90;999.90;;;15.10;99.90;;;;;;5066410;28;20139;-68
2022/09/10 06:00:14;;;;;;;1999.90;999.90;;;15.20;99.90;;;;;;5065941;28;20090;-68
2022/09/10 06:02:40;;;;;;;1999.90;999.90;;;15.10;99.90;;;;;;5071792;28;20445;-68
2022/09/10 06:05:06;;;;;;;1999.90;999.90;;;15.20;99.90;;;;;;5068241;28;20404;-68
2022/09/10 06:07:32;;;;;;;1999.90;999.90;;;15.20;99.90;;;;;;5038615;28;20063;-68
2022/09/10 06:09:58;;;;;;;1999.90;999.90;;;15.30;99.90;;;;;;5069776;28;20036;-68
2022/09/10 06:12:25;;;;;;;1999.90;999.90;;;15.30;99.90;;;;;;5050589;28;20064;-68
2022/09/10 06:14:51;;;;;;;1999.90;999.90;;;15.40;99.90;;;;;;5070364;28;20370;-68
2022/09/10 06:17:17;;;;;;;1999.90;999.90;;;15.40;99.90;;;;;;5073583;28;20044;-68
2022/09/10 06:19:44;;;;;;;1999.90;999.90;;;15.40;99.90;;;;;;5046655;28;20676;-68
2022/09/10 06:22:10;;;;;;;1999.90;999.90;;;15.40;99.90;;;;;;5059888;28;20396;-69
2022/09/10 06:24:36;;;;;;;1999.90;999.90;;;15.40;99.90;;;;;;5089589;28;20383;-68
2022/09/10 06:27:04;;;;;;;1999.90;999.90;;;15.50;99.90;;;;;;5072204;28;20191;-68
2022/09/10 06:29:29;;;;;;;1999.90;999.90;;;15.50;99.90;;;;;;5072123;28;20070;-69
2022/09/10 06:31:55;;;;;;;1999.90;999.90;;;15.60;99.90;;;;;;5071351;28;20087;-68
2022/09/10 06:34:21;;;;;;;1999.90;999.90;;;15.60;99.90;;;;;;5078031;28;20040;-68
2022/09/10 06:36:48;;;;;;;1999.90;999.90;;;15.60;99.90;;;;;;5090507;28;20039;-68
2022/09/10 06:39:14;;;;;;;1999.90;999.90;;;15.70;99.90;;;;;;5085244;28;20074;-69
2022/09/10 06:41:39;;;;;;;1999.90;999.90;;;15.70;99.90;;;;;;5066727;28;20051;-69
2022/09/10 06:44:05;;;;;;;1999.90;999.90;;;15.70;99.90;;;;;;5081481;28;20052;-68
2022/09/10 06:46:30;;;;;;;1999.90;999.90;;;15.80;99.90;;;;;;5072370;28;20052;-68
2022/09/10 06:49:01;;;;;;;1999.90;999.90;;;15.80;99.90;;;;;;5089574;28;20070;-68
2022/09/10 06:51:28;;;;;;;1999.90;999.90;;;15.80;99.90;;;;;;5072480;28;20498;-68
2022/09/10 06:53:54;;;;;;;1999.90;999.90;;;15.80;99.90;;;;;;5089854;28;20040;-68
2022/09/10 06:56:20;;;;;;;1999.90;999.90;;;15.80;99.90;;;;;;5072185;28;20048;-68
2022/09/10 06:58:45;;;;;;;1999.90;999.90;;;15.80;99.90;;;;;;5055626;28;20040;-68
2022/09/10 07:01:16;;;;;;;1999.90;999.90;;;15.90;99.90;;;;;;5066490;28;20093;-68
2022/09/10 07:03:42;;;;;;;1999.90;999.90;;;15.90;99.90;;;;;;5083584;28;20047;-68
2022/09/10 07:06:12;;;;;;;1999.90;999.90;;;15.90;99.90;;;;;;5073126;28;20036;-68
2022/09/10 07:08:38;;;;;;;1999.90;999.90;;;15.90;99.90;;;;;;5071248;28;20042;-68
2022/09/10 07:11:06;;;;;;;1999.90;999.90;;;16.00;99.90;;;;;;5051446;28;20495;-68
2022/09/10 07:13:33;;;;;;;1999.90;999.90;;;16.00;99.90;;;;;;5079609;28;20495;-68
2022/09/10 07:16:00;;;;;;;1999.90;999.90;;;16.10;99.90;;;;;;5078662;28;20051;-68
2022/09/10 07:18:26;;;;;;;1999.90;999.90;;;16.10;99.90;;;;;;5041697;28;20036;-68
2022/09/10 07:20:52;;;;;;;1999.90;999.90;;;16.10;99.90;;;;;;5072894;28;20058;-68
2022/09/10 07:23:19;;;;;;;1999.90;999.90;;;16.20;99.90;;;;;;5049401;28;20047;-68
2022/09/10 07:25:46;;;;;;;1999.90;999.90;;;16.30;99.90;;;;;;5057788;28;20052;-68
2022/09/10 07:28:14;;;;;;;1999.90;999.90;;;16.30;99.90;;;;;;5072934;28;20055;-68
2022/09/10 07:30:41;;;;;;;1999.90;999.90;;;16.40;99.90;;;;;;5070787;28;20060;-68
2022/09/10 07:33:06;;;;;;;1999.90;999.90;;;16.40;99.90;;;;;;5073435;28;20421;-68
2022/09/10 07:35:36;;;;;;;1999.90;999.90;;;16.50;99.90;;;;;;5071617;28;20043;-68
2022/09/10 07:38:04;;;;;;;1999.90;999.90;;;16.60;99.90;;;;;;5045515;28;20043;-68
2022/09/10 07:40:30;;;;;;;1999.90;999.90;;;16.70;99.90;;;;;;5071045;28;20101;-68
2022/09/10 07:42:56;;;;;;;1999.90;999.90;;;16.70;99.90;;;;;;5074657;28;20066;-68
2022/09/10 07:45:21;;;;;;;1999.90;999.90;;;16.70;99.90;;;;;;5079682;28;20040;-68
2022/09/10 07:47:48;;;;;;;1999.90;999.90;;;16.80;99.90;;;;;;5063718;28;20047;-68
2022/09/10 07:50:14;;;;;;;1999.90;999.90;;;16.80;99.90;;;;;;5064769;28;20032;-68
2022/09/10 07:52:40;;;;;;;1999.90;999.90;;;16.80;99.90;;;;;;5070908;28;20040;-68
2022/09/10 07:55:07;;;;;;;1999.90;999.90;;;16.80;99.90;;;;;;5067018;28;20495;-68
2022/09/10 07:57:39;;;;;;;1999.90;999.90;;;16.90;99.90;;;;;;5061736;28;20127;-68
2022/09/10 08:00:10;;;;;;;;;;;16.80;99.90;;;;;;5065604;28;20072;-68
2022/09/10 08:02:37;;;;;;;1999.90;999.90;;;16.80;99.90;;;;;;5078397;28;19929;-68
2022/09/10 08:05:03;;;;;;;1999.90;999.90;;;16.80;99.90;;;;;;5071937;28;20035;-68
2022/09/10 08:07:29;;;;;;;1999.90;999.90;;;16.80;99.90;;;;;;5050288;28;20395;-68
2022/09/10 08:09:55;;;;;;;1999.90;999.90;;;16.80;99.90;;;;;;5062215;28;20039;-68
2022/09/10 08:12:21;;;;;;;1999.90;999.90;;;16.70;99.90;;;;;;5067013;28;20040;-68
2022/09/10 08:14:46;;;;;;;1999.90;999.90;;;16.70;99.90;;;;;;5071922;28;20051;-68
2022/09/10 08:17:12;;;;;;;1999.90;999.90;;;16.70;99.90;;;;;;5048641;28;20077;-68
2022/09/10 08:19:38;;;;;;;1999.90;999.90;;;16.70;99.90;;;;;;5057491;28;20053;-68
2022/09/10 08:22:04;;;;;;;1999.90;999.90;;;16.70;99.90;;;;;;5064299;28;20514;-68
2022/09/10 08:24:30;;;;;;;1999.90;999.90;;;16.70;99.90;;;;;;5078740;28;20108;-68
2022/09/10 08:26:55;;;;;;;1999.90;999.90;;;16.70;99.90;;;;;;5059976;28;20040;-68
2022/09/10 08:29:22;;;;;;;1999.90;999.90;;;16.80;99.90;;;;;;5050082;28;20115;-68
2022/09/10 08:31:47;;;;;;;1999.90;999.90;;;16.80;99.90;;;;;;5064016;28;20456;-68
2022/09/10 08:34:13;;;;;;;1999.90;999.90;;;16.80;99.90;;;;;;5072311;28;20091;-68
2022/09/10 08:36:39;;;;;;;1999.90;999.90;;;16.80;99.90;;;;;;5061968;28;20503;-68
2022/09/10 08:39:04;;;;;;;1999.90;999.90;;;16.80;99.90;;;;;;5069023;28;20395;-68
2022/09/10 08:41:37;;;;;;;1999.90;999.90;;;16.80;99.90;;;;;;5054142;28;20765;-68
2022/09/10 08:44:08;;;;;;;1999.90;999.90;;;16.80;99.90;;;;;;5073643;28;20056;-68
2022/09/10 08:46:50;;;;;;;1999.90;999.90;;;16.70;99.90;;;;;;5074163;28;20054;-68
2022/09/10 08:49:32;;;;;;;1999.90;999.90;;;16.70;99.90;;;;;;5067140;28;20036;-68
2022/09/10 08:52:40;;;;;;;1999.90;999.90;;;16.70;99.90;;;;;;5065984;28;20390;-70
2022/09/10 08:55:18;;;;;;;1999.90;999.90;;;16.70;99.90;;;;;;5060845;28;20400;-68
2022/09/10 08:57:46;;;;;;;1999.90;999.90;;;16.70;99.90;;;;;;5067391;28;20047;-68
2022/09/10 09:00:18;;;;;;;1999.90;999.90;;;16.70;99.90;;;;;;5061163;28;20703;-68
2022/09/10 09:02:55;;;;;;;1999.90;999.90;;;16.70;99.90;;;;;;5082890;28;20051;-68
2022/09/10 09:05:22;;;;;;;1999.90;999.90;;;16.70;99.90;;;;;;5065791;28;20184;-68
2022/09/10 09:07:49;;;;;;;1999.90;999.90;;;16.80;99.90;;;;;;5055281;28;20049;-68
2022/09/10 09:10:24;;;;;;;1999.90;999.90;;;16.80;99.90;;;;;;5059242;28;20040;-68
2022/09/10 09:13:09;;;;;;;1999.90;999.90;;;16.90;99.90;;;;;;5042271;28;20126;-68
2022/09/10 09:15:48;;;;;;;1999.90;999.90;;;16.90;99.90;;;;;;5061294;28;20044;-68
2022/09/10 09:18:35;;;;;;;1999.90;999.90;;;17.00;99.90;;;;;;5059287;28;20044;-68
2022/09/10 09:21:11;;;;;;;1999.90;999.90;;;17.10;99.90;;;;;;5064199;28;20130;-69
2022/09/10 09:23:42;;;;;;;1999.90;999.90;;;17.20;99.90;;;;;;5060669;28;20040;-68
2022/09/10 09:26:15;;;;;;;1999.90;999.90;;;17.20;99.90;;;;;;5079972;28;20048;-68
2022/09/10 09:29:10;;;;;;;1999.90;999.90;;;17.20;99.90;;;;;;5043894;28;20072;-68
2022/09/10 09:31:45;;;;;;;1999.90;999.90;;;17.30;99.90;;;;;;5052045;28;20128;-68
2022/09/10 09:34:19;;;;;;;1999.90;999.90;;;17.30;99.90;;;;;;5062016;28;20419;-68
2022/09/10 09:36:50;;;;;;;1999.90;999.90;;;17.30;99.90;;;;;;5078494;28;20040;-68
2022/09/10 09:39:23;;;;;;;1999.90;999.90;;;17.30;99.90;;;;;;5048856;28;20075;-68
2022/09/10 09:42:11;;;;;;;1999.90;999.90;;;17.30;99.90;;;;;;5065266;28;20044;-68
2022/09/10 09:45:29;;;;;;;1999.90;999.90;;;17.20;99.90;;;;;;5071794;28;20492;-68
2022/09/10 09:47:55;;;;;;;1999.90;999.90;;;17.20;99.90;;;;;;5058657;28;20385;-68
2022/09/10 09:50:21;;;;;;;1999.90;999.90;;;17.20;99.90;;;;;;5056130;28;20042;-68
2022/09/10 09:52:49;;;;;;;1999.90;999.90;;;17.20;99.90;;;;;;5073686;28;20428;-68
2022/09/10 09:55:30;;;;;;;1999.90;999.90;;;17.20;99.90;;;;;;5084132;28;20044;-68
2022/09/10 09:58:20;;;;;;;1999.90;999.90;;;17.20;99.90;;;;;;5053571;28;20484;-68
2022/09/10 10:01:11;;;;;;;1999.90;999.90;;;17.20;99.90;;;;;;5071272;28;20134;-68
2022/09/10 10:03:50;;;;;;;1999.90;999.90;;;17.20;99.90;;;;;;5066136;28;20455;-68
2022/09/10 10:06:18;;;;;;;1999.90;999.90;;;17.20;99.90;;;;;;5057972;28;20051;-68
2022/09/10 10:09:04;;;;;;;1999.90;999.90;;;17.30;99.90;;;;;;5069041;28;20051;-68
2022/09/10 10:11:54;;;;;;;1999.90;999.90;;;17.30;99.90;;;;;;5080338;28;20086;-68
2022/09/10 10:14:19;;;;;;;1999.90;999.90;;;17.40;99.90;;;;;;5070053;28;20122;-68
2022/09/10 10:16:47;;;;;;;1999.90;999.90;;;17.40;99.90;;;;;;5074334;28;20121;-68
2022/09/10 10:19:31;;;;;;;1999.90;999.90;;;17.40;99.90;;;;;;5071749;28;20496;-68
2022/09/10 10:22:16;;;;;;;1999.90;999.90;;;17.40;99.90;;;;;;5059018;28;20039;-68
2022/09/10 10:24:42;;;;;;;1999.90;999.90;;;17.40;99.90;;;;;;5065227;28;20098;-68
2022/09/10 10:27:31;;;;;;;1999.90;999.90;;;17.50;99.90;;;;;;5073835;28;20475;-68
2022/09/10 10:30:20;;;;;;;1999.90;999.90;;;17.60;99.90;;;;;;5070130;28;20541;-68
2022/09/10 10:32:57;;;;;;;1999.90;999.90;;;17.60;99.90;;;;;;5071669;28;20564;-68
2022/09/10 10:35:33;;;;;;;1999.90;999.90;;;17.60;99.90;;;;;;5089414;28;20036;-68
2022/09/10 10:38:26;;;;;;;1999.90;999.90;;;17.70;99.90;;;;;;5042335;28;20043;-68
2022/09/10 10:41:04;;;;;;;1999.90;999.90;;;17.70;99.90;;;;;;5076179;28;20032;-68
2022/09/10 10:43:47;;;;;;;1999.90;999.90;;;17.80;99.90;;;;;;5083208;28;20040;-68
2022/09/10 10:46:19;;;;;;;1999.90;999.90;;;17.90;99.90;;;;;;5052684;28;20044;-68
2022/09/10 10:49:06;;;;;;;1999.90;999.90;;;18.00;99.90;;;;;;5075460;28;20043;-68
2022/09/10 10:52:00;;;;;;;1999.90;999.90;;;18.10;99.90;;;;;;5072127;28;20047;-68
2022/09/10 10:54:58;;;;;;;1999.90;999.90;;;18.10;99.90;;;;;;5049067;28;20040;-68
2022/09/10 10:57:34;;;;;;;1999.90;999.90;;;18.30;99.90;;;;;;5065809;28;20040;-68
2022/09/10 11:00:06;;;;;;;1999.90;999.90;;;18.30;99.90;;;;;;5071947;28;20185;-68
2022/09/10 11:02:53;;;;;;;1999.90;999.90;;;18.40;99.90;;;;;;5075011;28;20391;-68
2022/09/10 11:05:41;;;;;;;1999.90;999.90;;;18.50;99.90;;;;;;5084022;28;20097;-68
2022/09/10 11:08:49;;;;;;;1999.90;999.90;;;18.60;99.90;;;;;;5066493;28;20043;-68
2022/09/10 11:11:21;;;;;;;1999.90;999.90;;;18.80;99.90;;;;;;5000756;28;20048;-68
2022/09/10 11:14:18;;;;;;;1999.90;999.90;;;19.00;99.90;;;;;;5069520;28;20046;-68
2022/09/10 11:16:58;;;;;;;1999.90;999.90;;;19.00;99.90;;;;;;5047657;28;20395;-68
2022/09/10 11:19:39;;;;;;;1999.90;999.90;;;19.00;99.90;;;;;;5074811;28;20040;-68
2022/09/10 11:22:26;;;;;;;1999.90;999.90;;;19.00;99.90;;;;;;5077143;28;20373;-68
2022/09/10 11:25:20;;;;;;;1999.90;999.90;;;18.90;99.90;;;;;;5058267;28;20048;-68
2022/09/10 11:27:50;;;;;;;1999.90;999.90;;;18.90;99.90;;;;;;5059766;28;20052;-68
2022/09/10 11:30:18;;;;;;;1999.90;999.90;;;18.90;99.90;;;;;;5061163;28;20434;-68
2022/09/10 11:32:55;;;;;;;1999.90;999.90;;;18.90;99.90;;;;;;5064749;28;20070;-68
2022/09/10 11:35:44;;;;;;;1999.90;999.90;;;18.90;99.90;;;;;;5083510;28;20403;-68
2022/09/10 11:38:10;;;;;;;1999.90;999.90;;;19.00;99.90;;;;;;5062363;28;20486;-68
2022/09/10 11:40:51;;;;;;;1999.90;999.90;;;19.10;99.90;;;;;;5076756;28;20037;-68
2022/09/10 11:43:43;;;;;;;1999.90;999.90;;;19.30;99.90;;;;;;5069822;28;20043;-68
2022/09/10 11:46:14;;;;;;;1999.90;999.90;;;19.40;99.90;;;;;;5083395;28;20051;-68
2022/09/10 11:48:43;;;;;;;1999.90;999.90;;;19.60;99.90;;;;;;5080475;28;20039;-68
2022/09/10 11:51:23;;;;;;;1999.90;999.90;;;19.90;99.90;;;;;;5061119;28;20040;-68
2022/09/10 11:53:49;;;;;;;1999.90;999.90;;;20.10;99.90;;;;;;5046352;28;20040;-68
2022/09/10 11:56:36;;;;;;;1999.90;999.90;;;20.50;99.90;;;;;;5085657;28;20036;-68
2022/09/10 11:59:12;;;;;;;1999.90;999.90;;;21.10;99.90;;;;;;5061532;28;20048;-69
2022/09/10 12:02:18;;;;;;;1999.90;999.90;;;21.50;99.90;;;;;;5067958;28;20396;-68
2022/09/10 12:04:57;;;;;;;1999.90;999.90;;;21.50;99.90;;;;;;5085462;28;20620;-68
2022/09/10 12:07:39;;;;;;;1999.90;999.90;;;21.60;99.90;;;;;;5064025;28;20047;-68
2022/09/10 12:10:21;;;;;;;1999.90;999.90;;;21.90;99.90;;;;;;5071402;28;20113;-68
2022/09/10 12:12:49;;;;;;;1999.90;999.90;;;22.10;99.90;;;;;;5075118;28;20048;-68
2022/09/10 12:15:16;;;;;;;1999.90;999.90;;;22.30;99.90;;;;;;5077166;28;20089;-68
2022/09/10 12:17:44;;;;;;;1999.90;999.90;;;22.50;99.90;;;;;;5073228;28;20119;-68
2022/09/10 12:20:21;;;;;;;1999.90;999.90;;;22.30;99.90;;;;;;5089307;28;20499;-68